KSHR/SHR METAR and TAF weather

Enter ICAO airport designator
Station Type Date Time Source
KSHR METAR 2020/02/27 12:53 UTC NOAA

KSHR 271253Z AUTO 33011KT 10SM FEW055 00/M04 A3020 RMK AO2 PK WND 30029/1158 SLP256 T00001044


Station Type Date Time Source
KSHR Decoded METAR 2020/02/27 12:53 UTC NOAA

SHERIDAN COUNTY AIRPORT, WY, United States (KSHR) 44-46N 106-58W 1202M
Feb 27, 2020 - 07:53 AM EST / 2020.02.27 1253 UTC
Wind: from the NNW (330 degrees) at 13 MPH (11 KT):0
Visibility: 10 mile(s):0
Sky conditions: mostly clear
Temperature: 32.0 F (0.0 C)
Windchill: 23 F (-5 C):1
Dew Point: 24.1 F (-4.4 C)
Relative Humidity: 72%
Pressure (altimeter): 30.2 in. Hg (1022 hPa)
ob: KSHR 271253Z AUTO 33011KT 10SM FEW055 00/M04 A3020 RMK AO2 PK WND 30029/1158 SLP256 T00001044
cycle: 13

Station Type Date Time Source
KSHR TAF 2020/02/27 11:30 UTC NOAA

TAF
AMD KSHR 271129Z 2711/2812 30016G25KT P6SM -SN FEW012 OVC030
TEMPO 2712/2714 2SM -SN BLSN BKN012 OVC030
FM271500 31016KT P6SM FEW040 BKN120
FM272000 30018KT P6SM FEW070 SCT120 BKN200
FM280200 30008KT P6SM FEW050 SCT200

Example: see airport list